sensor_id;sensor_type;location;lat;lon;timestamp;P1;durP1;ratioP1;P2;durP2;ratioP2
21798;SDS011;24973;47.178;15.316;2023-03-01T00:01:27;21.93;;;11.47;;
21798;SDS011;24973;47.178;15.316;2023-03-01T00:04:18;11.23;;;10.03;;
21798;SDS011;24973;47.178;15.316;2023-03-01T00:07:06;16.57;;;10.87;;
21798;SDS011;24973;47.178;15.316;2023-03-01T00:09:55;17.10;;;10.07;;
21798;SDS011;24973;47.178;15.316;2023-03-01T00:12:44;17.10;;;11.43;;
21798;SDS011;24973;47.178;15.316;2023-03-01T00:15:37;18.27;;;10.20;;
21798;SDS011;24973;47.178;15.316;2023-03-01T00:18:27;13.13;;;10.03;;
21798;SDS011;24973;47.178;15.316;2023-03-01T00:21:16;13.63;;;9.97;;
21798;SDS011;24973;47.178;15.316;2023-03-01T00:24:06;16.27;;;9.97;;
21798;SDS011;24973;47.178;15.316;2023-03-01T00:26:55;17.53;;;11.40;;
21798;SDS011;24973;47.178;15.316;2023-03-01T00:29:44;18.27;;;11.80;;
21798;SDS011;24973;47.178;15.316;2023-03-01T00:32:34;16.80;;;10.83;;
21798;SDS011;24973;47.178;15.316;2023-03-01T00:35:23;18.87;;;11.00;;
21798;SDS011;24973;47.178;15.316;2023-03-01T00:38:11;16.40;;;11.07;;
21798;SDS011;24973;47.178;15.316;2023-03-01T00:41:02;17.77;;;11.87;;
21798;SDS011;24973;47.178;15.316;2023-03-01T00:43:52;13.00;;;10.23;;
21798;SDS011;24973;47.178;15.316;2023-03-01T00:46:41;14.40;;;10.33;;
21798;SDS011;24973;47.178;15.316;2023-03-01T00:49:31;12.30;;;9.03;;
21798;SDS011;24973;47.178;15.316;2023-03-01T00:52:20;12.23;;;9.60;;
21798;SDS011;24973;47.178;15.316;2023-03-01T00:55:09;16.83;;;10.47;;
21798;SDS011;24973;47.178;15.316;2023-03-01T00:57:59;13.57;;;10.47;;
21798;SDS011;24973;47.178;15.316;2023-03-01T01:00:47;12.37;;;9.03;;
21798;SDS011;24973;47.178;15.316;2023-03-01T01:03:36;15.93;;;9.30;;
21798;SDS011;24973;47.178;15.316;2023-03-01T01:06:27;17.30;;;10.80;;
21798;SDS011;24973;47.178;15.316;2023-03-01T01:09:18;17.27;;;9.17;;
21798;SDS011;24973;47.178;15.316;2023-03-01T01:12:06;12.87;;;9.13;;
21798;SDS011;24973;47.178;15.316;2023-03-01T01:14:56;19.90;;;11.27;;
21798;SDS011;24973;47.178;15.316;2023-03-01T01:17:45;13.73;;;10.07;;
21798;SDS011;24973;47.178;15.316;2023-03-01T01:20:34;16.27;;;10.33;;
21798;SDS011;24973;47.178;15.316;2023-03-01T01:23:25;14.77;;;9.77;;
21798;SDS011;24973;47.178;15.316;2023-03-01T01:26:14;11.20;;;9.37;;
21798;SDS011;24973;47.178;15.316;2023-03-01T01:29:06;12.93;;;8.47;;
21798;SDS011;24973;47.178;15.316;2023-03-01T01:31:55;14.70;;;9.40;;
21798;SDS011;24973;47.178;15.316;2023-03-01T01:34:44;14.53;;;10.53;;
21798;SDS011;24973;47.178;15.316;2023-03-01T01:37:33;11.87;;;9.23;;
21798;SDS011;24973;47.178;15.316;2023-03-01T01:40:23;15.13;;;9.67;;
21798;SDS011;24973;47.178;15.316;2023-03-01T01:43:14;17.20;;;9.77;;
21798;SDS011;24973;47.178;15.316;2023-03-01T01:46:13;11.03;;;8.03;;
21798;SDS011;24973;47.178;15.316;2023-03-01T01:49:23;14.13;;;8.83;;
21798;SDS011;24973;47.178;15.316;2023-03-01T01:52:22;16.57;;;10.93;;
21798;SDS011;24973;47.178;15.316;2023-03-01T01:55:15;12.37;;;9.97;;
21798;SDS011;24973;47.178;15.316;2023-03-01T01:58:09;14.33;;;9.17;;
21798;SDS011;24973;47.178;15.316;2023-03-01T02:01:02;15.97;;;10.53;;
21798;SDS011;24973;47.178;15.316;2023-03-01T02:03:52;14.43;;;8.87;;
21798;SDS011;24973;47.178;15.316;2023-03-01T02:06:41;10.57;;;9.07;;
21798;SDS011;24973;47.178;15.316;2023-03-01T02:09:36;16.17;;;10.33;;
21798;SDS011;24973;47.178;15.316;2023-03-01T02:12:26;14.63;;;9.23;;
21798;SDS011;24973;47.178;15.316;2023-03-01T02:15:16;17.57;;;11.60;;
21798;SDS011;24973;47.178;15.316;2023-03-01T02:18:06;15.50;;;10.60;;
21798;SDS011;24973;47.178;15.316;2023-03-01T02:21:00;14.30;;;9.83;;
21798;SDS011;24973;47.178;15.316;2023-03-01T02:24:01;14.03;;;9.00;;
21798;SDS011;24973;47.178;15.316;2023-03-01T02:27:06;14.47;;;9.50;;
21798;SDS011;24973;47.178;15.316;2023-03-01T02:29:56;14.33;;;10.07;;
21798;SDS011;24973;47.178;15.316;2023-03-01T02:32:45;12.97;;;9.17;;
21798;SDS011;24973;47.178;15.316;2023-03-01T02:35:35;15.63;;;10.07;;
21798;SDS011;24973;47.178;15.316;2023-03-01T02:38:26;14.83;;;10.00;;
21798;SDS011;24973;47.178;15.316;2023-03-01T02:41:16;16.40;;;10.40;;
21798;SDS011;24973;47.178;15.316;2023-03-01T02:44:07;12.77;;;8.50;;
21798;SDS011;24973;47.178;15.316;2023-03-01T02:46:57;11.93;;;8.47;;
21798;SDS011;24973;47.178;15.316;2023-03-01T02:49:51;13.20;;;8.03;;
21798;SDS011;24973;47.178;15.316;2023-03-01T02:52:41;12.70;;;9.27;;
21798;SDS011;24973;47.178;15.316;2023-03-01T02:55:35;12.10;;;9.40;;
21798;SDS011;24973;47.178;15.316;2023-03-01T02:58:25;13.90;;;9.80;;
21798;SDS011;24973;47.178;15.316;2023-03-01T03:01:13;16.67;;;9.83;;
21798;SDS011;24973;47.178;15.316;2023-03-01T03:04:05;16.77;;;10.83;;
21798;SDS011;24973;47.178;15.316;2023-03-01T03:06:56;11.87;;;9.43;;
21798;SDS011;24973;47.178;15.316;2023-03-01T03:09:45;15.53;;;9.80;;
21798;SDS011;24973;47.178;15.316;2023-03-01T03:12:33;11.93;;;9.50;;
21798;SDS011;24973;47.178;15.316;2023-03-01T03:15:22;15.87;;;11.00;;
21798;SDS011;24973;47.178;15.316;2023-03-01T03:18:14;15.23;;;11.00;;
21798;SDS011;24973;47.178;15.316;2023-03-01T03:21:08;14.73;;;9.80;;
21798;SDS011;24973;47.178;15.316;2023-03-01T03:23:59;11.00;;;8.77;;
21798;SDS011;24973;47.178;15.316;2023-03-01T03:26:48;13.27;;;9.43;;
21798;SDS011;24973;47.178;15.316;2023-03-01T03:29:36;15.27;;;9.57;;
21798;SDS011;24973;47.178;15.316;2023-03-01T03:32:25;12.73;;;9.63;;
21798;SDS011;24973;47.178;15.316;2023-03-01T03:35:14;11.70;;;9.33;;
21798;SDS011;24973;47.178;15.316;2023-03-01T03:38:05;15.87;;;9.57;;
21798;SDS011;24973;47.178;15.316;2023-03-01T03:41:02;15.03;;;8.97;;
21798;SDS011;24973;47.178;15.316;2023-03-01T03:43:54;11.53;;;9.20;;
21798;SDS011;24973;47.178;15.316;2023-03-01T03:46:42;16.30;;;8.80;;
21798;SDS011;24973;47.178;15.316;2023-03-01T03:49:31;14.20;;;9.97;;
21798;SDS011;24973;47.178;15.316;2023-03-01T03:52:21;15.60;;;10.63;;
21798;SDS011;24973;47.178;15.316;2023-03-01T03:55:11;11.87;;;9.50;;
21798;SDS011;24973;47.178;15.316;2023-03-01T03:58:01;12.77;;;9.63;;
21798;SDS011;24973;47.178;15.316;2023-03-01T04:00:54;14.83;;;9.80;;
21798;SDS011;24973;47.178;15.316;2023-03-01T04:03:44;12.00;;;9.63;;
21798;SDS011;24973;47.178;15.316;2023-03-01T04:06:33;13.73;;;9.37;;
21798;SDS011;24973;47.178;15.316;2023-03-01T04:09:22;12.80;;;9.87;;
21798;SDS011;24973;47.178;15.316;2023-03-01T04:12:12;19.70;;;10.97;;
21798;SDS011;24973;47.178;15.316;2023-03-01T04:15:07;14.73;;;9.13;;
21798;SDS011;24973;47.178;15.316;2023-03-01T04:18:00;16.63;;;9.80;;
21798;SDS011;24973;47.178;15.316;2023-03-01T04:20:49;14.77;;;10.00;;
21798;SDS011;24973;47.178;15.316;2023-03-01T04:23:41;12.20;;;9.13;;
21798;SDS011;24973;47.178;15.316;2023-03-01T04:26:30;14.07;;;9.83;;
21798;SDS011;24973;47.178;15.316;2023-03-01T04:29:20;12.40;;;8.53;;
21798;SDS011;24973;47.178;15.316;2023-03-01T04:32:09;14.30;;;9.53;;
21798;SDS011;24973;47.178;15.316;2023-03-01T04:34:59;14.20;;;9.50;;
21798;SDS011;24973;47.178;15.316;2023-03-01T04:37:49;12.53;;;8.37;;
21798;SDS011;24973;47.178;15.316;2023-03-01T04:40:37;10.37;;;8.27;;
21798;SDS011;24973;47.178;15.316;2023-03-01T04:43:29;14.37;;;9.03;;
21798;SDS011;24973;47.178;15.316;2023-03-01T04:46:19;16.00;;;9.40;;
21798;SDS011;24973;47.178;15.316;2023-03-01T04:49:09;17.63;;;11.10;;
21798;SDS011;24973;47.178;15.316;2023-03-01T04:51:57;16.80;;;9.80;;
21798;SDS011;24973;47.178;15.316;2023-03-01T04:54:48;9.90;;;8.90;;
21798;SDS011;24973;47.178;15.316;2023-03-01T04:57:37;12.33;;;8.53;;
21798;SDS011;24973;47.178;15.316;2023-03-01T05:00:26;15.43;;;9.47;;
21798;SDS011;24973;47.178;15.316;2023-03-01T05:03:16;11.53;;;7.70;;
21798;SDS011;24973;47.178;15.316;2023-03-01T05:06:05;14.00;;;8.40;;
21798;SDS011;24973;47.178;15.316;2023-03-01T05:08:54;9.20;;;8.10;;
21798;SDS011;24973;47.178;15.316;2023-03-01T05:11:42;13.87;;;8.93;;
21798;SDS011;24973;47.178;15.316;2023-03-01T05:14:31;12.53;;;7.93;;
21798;SDS011;24973;47.178;15.316;2023-03-01T05:17:20;15.10;;;9.67;;
21798;SDS011;24973;47.178;15.316;2023-03-01T05:20:10;12.90;;;10.47;;
21798;SDS011;24973;47.178;15.316;2023-03-01T05:22:59;14.97;;;10.13;;
21798;SDS011;24973;47.178;15.316;2023-03-01T05:25:51;13.70;;;7.93;;
21798;SDS011;24973;47.178;15.316;2023-03-01T05:28:41;12.47;;;8.90;;
21798;SDS011;24973;47.178;15.316;2023-03-01T05:31:30;15.43;;;9.13;;
21798;SDS011;24973;47.178;15.316;2023-03-01T05:34:18;10.13;;;8.87;;
21798;SDS011;24973;47.178;15.316;2023-03-01T05:37:13;13.63;;;9.20;;
21798;SDS011;24973;47.178;15.316;2023-03-01T05:40:02;12.07;;;8.30;;
21798;SDS011;24973;47.178;15.316;2023-03-01T05:42:53;13.93;;;9.40;;
21798;SDS011;24973;47.178;15.316;2023-03-01T05:45:43;13.67;;;8.63;;
21798;SDS011;24973;47.178;15.316;2023-03-01T05:48:33;18.00;;;9.60;;
21798;SDS011;24973;47.178;15.316;2023-03-01T05:51:21;11.83;;;9.17;;
21798;SDS011;24973;47.178;15.316;2023-03-01T05:54:11;13.73;;;9.43;;
21798;SDS011;24973;47.178;15.316;2023-03-01T05:57:00;14.43;;;9.97;;
21798;SDS011;24973;47.178;15.316;2023-03-01T05:59:49;12.43;;;9.73;;
21798;SDS011;24973;47.178;15.316;2023-03-01T06:02:38;16.03;;;10.10;;
21798;SDS011;24973;47.178;15.316;2023-03-01T06:05:27;15.27;;;9.07;;
21798;SDS011;24973;47.178;15.316;2023-03-01T06:08:16;14.30;;;8.60;;
21798;SDS011;24973;47.178;15.316;2023-03-01T06:11:08;13.57;;;8.63;;
21798;SDS011;24973;47.178;15.316;2023-03-01T06:13:56;10.73;;;8.27;;
21798;SDS011;24973;47.178;15.316;2023-03-01T06:16:45;14.70;;;10.57;;
21798;SDS011;24973;47.178;15.316;2023-03-01T06:19:34;13.40;;;10.40;;
21798;SDS011;24973;47.178;15.316;2023-03-01T06:22:24;19.90;;;9.47;;
21798;SDS011;24973;47.178;15.316;2023-03-01T06:25:13;12.27;;;9.60;;
21798;SDS011;24973;47.178;15.316;2023-03-01T06:28:05;16.93;;;10.80;;
21798;SDS011;24973;47.178;15.316;2023-03-01T06:30:54;13.83;;;10.33;;
21798;SDS011;24973;47.178;15.316;2023-03-01T06:33:42;17.10;;;10.50;;
21798;SDS011;24973;47.178;15.316;2023-03-01T06:36:32;13.73;;;9.20;;
21798;SDS011;24973;47.178;15.316;2023-03-01T06:39:20;13.47;;;8.50;;
21798;SDS011;24973;47.178;15.316;2023-03-01T06:42:09;15.23;;;9.90;;
21798;SDS011;24973;47.178;15.316;2023-03-01T06:44:59;14.83;;;10.50;;
21798;SDS011;24973;47.178;15.316;2023-03-01T06:47:48;17.40;;;11.17;;
21798;SDS011;24973;47.178;15.316;2023-03-01T06:50:37;14.27;;;10.60;;
21798;SDS011;24973;47.178;15.316;2023-03-01T06:53:26;15.13;;;11.43;;
21798;SDS011;24973;47.178;15.316;2023-03-01T06:56:15;17.33;;;11.87;;
21798;SDS011;24973;47.178;15.316;2023-03-01T06:59:03;18.20;;;12.07;;
21798;SDS011;24973;47.178;15.316;2023-03-01T07:01:54;16.27;;;10.63;;
21798;SDS011;24973;47.178;15.316;2023-03-01T07:04:42;15.20;;;10.00;;
21798;SDS011;24973;47.178;15.316;2023-03-01T07:07:31;16.87;;;9.10;;
21798;SDS011;24973;47.178;15.316;2023-03-01T07:10:20;17.53;;;8.87;;
21798;SDS011;24973;47.178;15.316;2023-03-01T07:13:09;17.30;;;11.20;;
21798;SDS011;24973;47.178;15.316;2023-03-01T07:15:57;15.50;;;10.23;;
21798;SDS011;24973;47.178;15.316;2023-03-01T07:18:48;16.50;;;10.10;;
21798;SDS011;24973;47.178;15.316;2023-03-01T07:21:36;10.83;;;8.27;;
21798;SDS011;24973;47.178;15.316;2023-03-01T07:24:25;14.40;;;9.47;;
21798;SDS011;24973;47.178;15.316;2023-03-01T07:27:14;15.43;;;10.40;;
21798;SDS011;24973;47.178;15.316;2023-03-01T07:30:03;16.90;;;11.47;;
21798;SDS011;24973;47.178;15.316;2023-03-01T07:32:53;15.13;;;11.33;;
21798;SDS011;24973;47.178;15.316;2023-03-01T07:35:43;17.87;;;10.27;;
21798;SDS011;24973;47.178;15.316;2023-03-01T07:38:32;14.90;;;9.83;;
21798;SDS011;24973;47.178;15.316;2023-03-01T07:41:21;19.17;;;10.70;;
21798;SDS011;24973;47.178;15.316;2023-03-01T07:44:09;13.83;;;9.63;;
21798;SDS011;24973;47.178;15.316;2023-03-01T07:46:58;18.97;;;10.70;;
21798;SDS011;24973;47.178;15.316;2023-03-01T07:49:47;26.70;;;12.03;;
21798;SDS011;24973;47.178;15.316;2023-03-01T07:52:37;17.73;;;11.07;;
21798;SDS011;24973;47.178;15.316;2023-03-01T07:55:25;20.93;;;14.10;;
21798;SDS011;24973;47.178;15.316;2023-03-01T07:58:14;24.27;;;13.97;;
21798;SDS011;24973;47.178;15.316;2023-03-01T08:01:03;19.10;;;12.90;;
21798;SDS011;24973;47.178;15.316;2023-03-01T08:03:54;24.23;;;12.80;;
21798;SDS011;24973;47.178;15.316;2023-03-01T08:06:43;13.73;;;11.47;;
21798;SDS011;24973;47.178;15.316;2023-03-01T08:09:33;17.27;;;10.60;;
21798;SDS011;24973;47.178;15.316;2023-03-01T08:12:23;19.30;;;12.97;;
21798;SDS011;24973;47.178;15.316;2023-03-01T08:15:14;16.83;;;12.67;;
21798;SDS011;24973;47.178;15.316;2023-03-01T08:18:03;20.83;;;13.13;;
21798;SDS011;24973;47.178;15.316;2023-03-01T08:20:53;22.57;;;12.87;;
21798;SDS011;24973;47.178;15.316;2023-03-01T08:23:42;17.83;;;12.27;;
21798;SDS011;24973;47.178;15.316;2023-03-01T08:26:32;20.63;;;13.27;;
21798;SDS011;24973;47.178;15.316;2023-03-01T08:29:21;18.73;;;12.63;;
21798;SDS011;24973;47.178;15.316;2023-03-01T08:32:11;22.73;;;12.83;;
21798;SDS011;24973;47.178;15.316;2023-03-01T08:35:00;23.67;;;13.27;;
21798;SDS011;24973;47.178;15.316;2023-03-01T08:37:49;22.07;;;12.33;;
21798;SDS011;24973;47.178;15.316;2023-03-01T08:40:37;18.67;;;12.60;;
21798;SDS011;24973;47.178;15.316;2023-03-01T08:43:27;16.17;;;10.53;;
21798;SDS011;24973;47.178;15.316;2023-03-01T08:46:16;25.00;;;12.30;;
21798;SDS011;24973;47.178;15.316;2023-03-01T08:49:05;20.50;;;13.87;;
21798;SDS011;24973;47.178;15.316;2023-03-01T08:51:55;15.93;;;11.73;;
21798;SDS011;24973;47.178;15.316;2023-03-01T08:54:44;13.43;;;9.80;;
21798;SDS011;24973;47.178;15.316;2023-03-01T08:57:32;18.43;;;11.60;;
21798;SDS011;24973;47.178;15.316;2023-03-01T09:00:22;18.27;;;10.90;;
21798;SDS011;24973;47.178;15.316;2023-03-01T09:03:12;17.30;;;11.67;;
21798;SDS011;24973;47.178;15.316;2023-03-01T09:06:01;14.63;;;11.13;;
21798;SDS011;24973;47.178;15.316;2023-03-01T09:08:50;15.37;;;10.53;;
21798;SDS011;24973;47.178;15.316;2023-03-01T09:11:39;14.37;;;10.53;;
21798;SDS011;24973;47.178;15.316;2023-03-01T09:14:28;15.37;;;9.53;;
21798;SDS011;24973;47.178;15.316;2023-03-01T09:17:18;18.33;;;11.90;;
21798;SDS011;24973;47.178;15.316;2023-03-01T09:20:08;15.80;;;10.90;;
21798;SDS011;24973;47.178;15.316;2023-03-01T09:22:58;14.47;;;10.20;;
21798;SDS011;24973;47.178;15.316;2023-03-01T09:25:47;19.23;;;12.13;;
21798;SDS011;24973;47.178;15.316;2023-03-01T09:28:36;24.03;;;12.50;;
21798;SDS011;24973;47.178;15.316;2023-03-01T09:31:25;15.40;;;11.60;;
21798;SDS011;24973;47.178;15.316;2023-03-01T09:34:15;14.57;;;10.40;;
21798;SDS011;24973;47.178;15.316;2023-03-01T09:37:09;16.57;;;11.23;;
21798;SDS011;24973;47.178;15.316;2023-03-01T09:39:58;14.93;;;11.27;;
21798;SDS011;24973;47.178;15.316;2023-03-01T09:42:48;17.60;;;11.77;;
21798;SDS011;24973;47.178;15.316;2023-03-01T09:45:41;19.83;;;12.30;;
21798;SDS011;24973;47.178;15.316;2023-03-01T09:48:37;16.30;;;12.13;;
21798;SDS011;24973;47.178;15.316;2023-03-01T09:51:32;19.80;;;12.47;;
21798;SDS011;24973;47.178;15.316;2023-03-01T09:54:23;14.77;;;10.47;;
21798;SDS011;24973;47.178;15.316;2023-03-01T09:57:14;17.20;;;11.87;;
21798;SDS011;24973;47.178;15.316;2023-03-01T10:00:11;17.13;;;11.70;;
21798;SDS011;24973;47.178;15.316;2023-03-01T10:03:12;17.87;;;12.00;;
21798;SDS011;24973;47.178;15.316;2023-03-01T10:06:10;19.03;;;12.23;;
21798;SDS011;24973;47.178;15.316;2023-03-01T10:09:21;20.93;;;13.17;;
21798;SDS011;24973;47.178;15.316;2023-03-01T10:12:10;16.53;;;12.23;;
21798;SDS011;24973;47.178;15.316;2023-03-01T10:15:04;26.00;;;13.03;;
21798;SDS011;24973;47.178;15.316;2023-03-01T10:18:00;17.23;;;12.53;;
21798;SDS011;24973;47.178;15.316;2023-03-01T10:20:55;17.03;;;11.77;;
21798;SDS011;24973;47.178;15.316;2023-03-01T10:23:49;16.33;;;11.80;;
21798;SDS011;24973;47.178;15.316;2023-03-01T10:26:44;22.30;;;12.93;;
21798;SDS011;24973;47.178;15.316;2023-03-01T10:29:40;21.33;;;12.87;;
21798;SDS011;24973;47.178;15.316;2023-03-01T10:32:37;17.27;;;12.60;;
21798;SDS011;24973;47.178;15.316;2023-03-01T10:35:27;18.43;;;12.47;;
21798;SDS011;24973;47.178;15.316;2023-03-01T10:38:18;23.90;;;13.27;;
21798;SDS011;24973;47.178;15.316;2023-03-01T10:41:08;23.17;;;12.90;;
21798;SDS011;24973;47.178;15.316;2023-03-01T10:43:58;21.40;;;11.63;;
21798;SDS011;24973;47.178;15.316;2023-03-01T10:46:47;19.93;;;12.80;;
21798;SDS011;24973;47.178;15.316;2023-03-01T10:49:55;23.87;;;13.80;;
21798;SDS011;24973;47.178;15.316;2023-03-01T10:52:56;17.33;;;11.70;;
21798;SDS011;24973;47.178;15.316;2023-03-01T10:55:47;18.20;;;12.80;;
21798;SDS011;24973;47.178;15.316;2023-03-01T10:58:57;19.93;;;14.07;;
21798;SDS011;24973;47.178;15.316;2023-03-01T11:02:00;26.87;;;13.97;;
21798;SDS011;24973;47.178;15.316;2023-03-01T11:05:16;17.30;;;11.77;;
21798;SDS011;24973;47.178;15.316;2023-03-01T11:08:10;13.67;;;11.60;;
21798;SDS011;24973;47.178;15.316;2023-03-01T11:11:06;19.77;;;11.57;;
21798;SDS011;24973;47.178;15.316;2023-03-01T11:14:06;17.30;;;12.57;;
21798;SDS011;24973;47.178;15.316;2023-03-01T11:17:12;14.07;;;11.53;;
21798;SDS011;24973;47.178;15.316;2023-03-01T11:20:18;13.83;;;9.80;;
21798;SDS011;24973;47.178;15.316;2023-03-01T11:23:17;17.97;;;12.47;;
21798;SDS011;24973;47.178;15.316;2023-03-01T11:26:08;16.20;;;12.57;;
21798;SDS011;24973;47.178;15.316;2023-03-01T11:29:00;23.27;;;11.83;;
21798;SDS011;24973;47.178;15.316;2023-03-01T11:31:55;14.30;;;11.07;;
21798;SDS011;24973;47.178;15.316;2023-03-01T11:34:49;14.10;;;10.27;;
21798;SDS011;24973;47.178;15.316;2023-03-01T11:37:49;24.03;;;11.43;;
21798;SDS011;24973;47.178;15.316;2023-03-01T11:40:52;16.70;;;12.17;;
21798;SDS011;24973;47.178;15.316;2023-03-01T11:43:48;19.73;;;10.67;;
21798;SDS011;24973;47.178;15.316;2023-03-01T11:46:51;16.27;;;11.67;;
21798;SDS011;24973;47.178;15.316;2023-03-01T11:50:07;15.60;;;10.47;;
21798;SDS011;24973;47.178;15.316;2023-03-01T11:56:28;23.77;;;10.83;;
21798;SDS011;24973;47.178;15.316;2023-03-01T12:06:24;19.37;;;11.40;;
21798;SDS011;24973;47.178;15.316;2023-03-01T12:09:44;14.80;;;10.93;;
21798;SDS011;24973;47.178;15.316;2023-03-01T12:16:18;17.90;;;11.43;;
21798;SDS011;24973;47.178;15.316;2023-03-01T12:19:38;18.83;;;11.93;;
21798;SDS011;24973;47.178;15.316;2023-03-01T12:22:47;17.30;;;11.90;;
21798;SDS011;24973;47.178;15.316;2023-03-01T12:26:06;18.10;;;11.53;;
21798;SDS011;24973;47.178;15.316;2023-03-01T12:29:08;20.30;;;12.47;;
21798;SDS011;24973;47.178;15.316;2023-03-01T12:32:21;19.07;;;12.17;;
21798;SDS011;24973;47.178;15.316;2023-03-01T12:35:33;19.47;;;13.00;;
21798;SDS011;24973;47.178;15.316;2023-03-01T12:38:40;24.30;;;12.63;;
21798;SDS011;24973;47.178;15.316;2023-03-01T12:41:40;17.53;;;12.57;;
21798;SDS011;24973;47.178;15.316;2023-03-01T12:44:38;30.50;;;14.43;;
21798;SDS011;24973;47.178;15.316;2023-03-01T12:47:50;26.70;;;13.77;;
21798;SDS011;24973;47.178;15.316;2023-03-01T12:50:59;19.53;;;12.97;;
21798;SDS011;24973;47.178;15.316;2023-03-01T12:53:53;18.57;;;12.73;;
21798;SDS011;24973;47.178;15.316;2023-03-01T12:56:43;18.03;;;11.40;;
21798;SDS011;24973;47.178;15.316;2023-03-01T12:59:39;19.93;;;11.57;;
21798;SDS011;24973;47.178;15.316;2023-03-01T13:02:36;24.07;;;12.00;;
21798;SDS011;24973;47.178;15.316;2023-03-01T13:05:34;16.77;;;11.00;;
21798;SDS011;24973;47.178;15.316;2023-03-01T13:08:33;18.27;;;11.07;;
21798;SDS011;24973;47.178;15.316;2023-03-01T13:11:30;17.80;;;11.15;;
21798;SDS011;24973;47.178;15.316;2023-03-01T13:14:36;25.03;;;14.67;;
21798;SDS011;24973;47.178;15.316;2023-03-01T13:17:33;20.10;;;11.57;;
21798;SDS011;24973;47.178;15.316;2023-03-01T13:20:32;14.17;;;10.17;;
21798;SDS011;24973;47.178;15.316;2023-03-01T13:23:36;18.60;;;12.23;;
21798;SDS011;24973;47.178;15.316;2023-03-01T13:26:26;18.87;;;10.30;;
21798;SDS011;24973;47.178;15.316;2023-03-01T13:29:25;14.80;;;9.70;;
21798;SDS011;24973;47.178;15.316;2023-03-01T13:32:21;11.50;;;8.77;;
21798;SDS011;24973;47.178;15.316;2023-03-01T13:35:40;16.40;;;10.70;;
21798;SDS011;24973;47.178;15.316;2023-03-01T13:38:39;12.53;;;8.13;;
21798;SDS011;24973;47.178;15.316;2023-03-01T13:41:50;17.23;;;9.53;;
21798;SDS011;24973;47.178;15.316;2023-03-01T13:44:41;14.70;;;8.20;;
21798;SDS011;24973;47.178;15.316;2023-03-01T13:47:32;11.77;;;7.90;;
21798;SDS011;24973;47.178;15.316;2023-03-01T13:50:24;16.93;;;8.60;;
21798;SDS011;24973;47.178;15.316;2023-03-01T13:53:16;16.90;;;8.47;;
21798;SDS011;24973;47.178;15.316;2023-03-01T13:56:09;11.40;;;7.03;;
21798;SDS011;24973;47.178;15.316;2023-03-01T13:59:04;14.63;;;9.63;;
21798;SDS011;24973;47.178;15.316;2023-03-01T14:02:00;17.57;;;10.77;;
21798;SDS011;24973;47.178;15.316;2023-03-01T14:04:55;12.80;;;9.83;;
21798;SDS011;24973;47.178;15.316;2023-03-01T14:07:50;13.20;;;9.87;;
21798;SDS011;24973;47.178;15.316;2023-03-01T14:10:41;13.80;;;8.87;;
21798;SDS011;24973;47.178;15.316;2023-03-01T14:13:54;13.60;;;7.73;;
21798;SDS011;24973;47.178;15.316;2023-03-01T14:17:08;13.90;;;7.17;;
21798;SDS011;24973;47.178;15.316;2023-03-01T14:20:17;10.30;;;7.03;;
21798;SDS011;24973;47.178;15.316;2023-03-01T14:23:09;9.70;;;7.33;;
21798;SDS011;24973;47.178;15.316;2023-03-01T14:26:01;10.70;;;7.50;;
21798;SDS011;24973;47.178;15.316;2023-03-01T14:28:50;9.07;;;6.90;;
21798;SDS011;24973;47.178;15.316;2023-03-01T14:31:41;12.87;;;6.17;;
21798;SDS011;24973;47.178;15.316;2023-03-01T14:34:42;13.97;;;7.07;;
21798;SDS011;24973;47.178;15.316;2023-03-01T14:37:33;9.13;;;6.33;;
21798;SDS011;24973;47.178;15.316;2023-03-01T14:40:24;10.80;;;6.80;;
21798;SDS011;24973;47.178;15.316;2023-03-01T14:43:16;13.03;;;6.63;;
21798;SDS011;24973;47.178;15.316;2023-03-01T14:46:18;8.43;;;6.70;;
21798;SDS011;24973;47.178;15.316;2023-03-01T14:49:10;8.70;;;6.50;;
21798;SDS011;24973;47.178;15.316;2023-03-01T14:52:03;8.77;;;6.07;;
21798;SDS011;24973;47.178;15.316;2023-03-01T14:54:55;8.80;;;5.87;;
21798;SDS011;24973;47.178;15.316;2023-03-01T14:57:44;9.53;;;5.70;;
21798;SDS011;24973;47.178;15.316;2023-03-01T15:00:36;11.60;;;6.63;;
21798;SDS011;24973;47.178;15.316;2023-03-01T15:03:27;8.20;;;5.87;;
21798;SDS011;24973;47.178;15.316;2023-03-01T15:06:23;19.43;;;7.60;;
21798;SDS011;24973;47.178;15.316;2023-03-01T15:09:13;7.53;;;5.70;;
21798;SDS011;24973;47.178;15.316;2023-03-01T15:15:34;10.87;;;5.40;;
21798;SDS011;24973;47.178;15.316;2023-03-01T15:18:28;10.50;;;6.87;;
21798;SDS011;24973;47.178;15.316;2023-03-01T15:21:18;10.77;;;6.73;;
21798;SDS011;24973;47.178;15.316;2023-03-01T15:24:16;9.90;;;5.20;;
21798;SDS011;24973;47.178;15.316;2023-03-01T15:27:12;9.17;;;6.97;;
21798;SDS011;24973;47.178;15.316;2023-03-01T15:30:05;9.23;;;7.27;;
21798;SDS011;24973;47.178;15.316;2023-03-01T15:33:18;11.13;;;7.73;;
21798;SDS011;24973;47.178;15.316;2023-03-01T15:36:32;8.60;;;5.47;;
21798;SDS011;24973;47.178;15.316;2023-03-01T15:39:29;15.03;;;8.67;;
21798;SDS011;24973;47.178;15.316;2023-03-01T15:42:36;8.77;;;5.77;;
21798;SDS011;24973;47.178;15.316;2023-03-01T15:45:27;7.43;;;5.77;;
21798;SDS011;24973;47.178;15.316;2023-03-01T15:48:17;7.90;;;5.47;;
21798;SDS011;24973;47.178;15.316;2023-03-01T15:51:10;9.13;;;6.03;;
21798;SDS011;24973;47.178;15.316;2023-03-01T15:54:03;9.13;;;5.73;;
21798;SDS011;24973;47.178;15.316;2023-03-01T15:56:59;8.67;;;6.80;;
21798;SDS011;24973;47.178;15.316;2023-03-01T15:59:47;8.70;;;5.90;;
21798;SDS011;24973;47.178;15.316;2023-03-01T16:02:36;8.73;;;5.37;;
21798;SDS011;24973;47.178;15.316;2023-03-01T16:05:27;7.17;;;5.00;;
21798;SDS011;24973;47.178;15.316;2023-03-01T16:08:19;8.63;;;4.77;;
21798;SDS011;24973;47.178;15.316;2023-03-01T16:11:11;7.80;;;6.57;;
21798;SDS011;24973;47.178;15.316;2023-03-01T16:14:04;8.47;;;5.80;;
21798;SDS011;24973;47.178;15.316;2023-03-01T16:16:53;7.17;;;4.93;;
21798;SDS011;24973;47.178;15.316;2023-03-01T16:19:41;6.30;;;4.63;;
21798;SDS011;24973;47.178;15.316;2023-03-01T16:22:30;11.43;;;5.70;;
21798;SDS011;24973;47.178;15.316;2023-03-01T16:25:20;4.80;;;4.30;;
21798;SDS011;24973;47.178;15.316;2023-03-01T16:28:09;8.43;;;5.47;;
21798;SDS011;24973;47.178;15.316;2023-03-01T16:30:58;8.87;;;4.77;;
21798;SDS011;24973;47.178;15.316;2023-03-01T16:33:48;9.97;;;5.23;;
21798;SDS011;24973;47.178;15.316;2023-03-01T16:36:38;6.57;;;4.90;;
21798;SDS011;24973;47.178;15.316;2023-03-01T16:39:27;9.37;;;5.10;;
21798;SDS011;24973;47.178;15.316;2023-03-01T16:42:18;7.30;;;5.27;;
21798;SDS011;24973;47.178;15.316;2023-03-01T16:45:07;6.93;;;4.33;;
21798;SDS011;24973;47.178;15.316;2023-03-01T16:48:08;7.67;;;4.43;;
21798;SDS011;24973;47.178;15.316;2023-03-01T16:50:58;5.60;;;4.20;;
21798;SDS011;24973;47.178;15.316;2023-03-01T16:53:48;5.60;;;4.83;;
21798;SDS011;24973;47.178;15.316;2023-03-01T16:56:38;20.00;;;10.90;;
21798;SDS011;24973;47.178;15.316;2023-03-01T16:59:28;14.60;;;7.90;;
21798;SDS011;24973;47.178;15.316;2023-03-01T17:02:16;11.83;;;5.57;;